sensor_id;sensor_type;location;lat;lon;timestamp;P1;durP1;ratioP1;P2;durP2;ratioP2
22768;SDS011;13001;51.968;5.918;2022-09-11T00:00:47;908.65;;;827.28;;
22768;SDS011;13001;51.968;5.918;2022-09-11T00:03:15;775.97;;;703.40;;
22768;SDS011;13001;51.968;5.918;2022-09-11T00:05:43;804.15;;;733.05;;
22768;SDS011;13001;51.968;5.918;2022-09-11T00:08:11;857.83;;;784.20;;
22768;SDS011;13001;51.968;5.918;2022-09-11T00:10:40;829.65;;;757.42;;
22768;SDS011;13001;51.968;5.918;2022-09-11T00:13:08;768.45;;;702.02;;
22768;SDS011;13001;51.968;5.918;2022-09-11T00:15:40;745.65;;;681.87;;
22768;SDS011;13001;51.968;5.918;2022-09-11T00:18:09;754.60;;;689.55;;
22768;SDS011;13001;51.968;5.918;2022-09-11T00:20:36;862.72;;;786.70;;
22768;SDS011;13001;51.968;5.918;2022-09-11T00:23:03;850.20;;;774.90;;
22768;SDS011;13001;51.968;5.918;2022-09-11T00:25:32;871.65;;;793.97;;
22768;SDS011;13001;51.968;5.918;2022-09-11T00:28:00;870.42;;;791.52;;
22768;SDS011;13001;51.968;5.918;2022-09-11T00:30:27;823.50;;;749.08;;
22768;SDS011;13001;51.968;5.918;2022-09-11T00:32:56;863.87;;;784.40;;
22768;SDS011;13001;51.968;5.918;2022-09-11T00:35:23;840.15;;;762.67;;
22768;SDS011;13001;51.968;5.918;2022-09-11T00:37:51;793.20;;;721.22;;
22768;SDS011;13001;51.968;5.918;2022-09-11T00:40:20;800.63;;;726.13;;
22768;SDS011;13001;51.968;5.918;2022-09-11T00:42:51;795.33;;;721.57;;
22768;SDS011;13001;51.968;5.918;2022-09-11T00:45:21;783.75;;;710.78;;
22768;SDS011;13001;51.968;5.918;2022-09-11T00:47:49;790.20;;;715.92;;
22768;SDS011;13001;51.968;5.918;2022-09-11T00:50:19;830.80;;;758.80;;
22768;SDS011;13001;51.968;5.918;2022-09-11T00:52:56;812.63;;;740.38;;
22768;SDS011;13001;51.968;5.918;2022-09-11T00:55:24;813.67;;;740.77;;
22768;SDS011;13001;51.968;5.918;2022-09-11T00:57:58;844.90;;;767.10;;
22768;SDS011;13001;51.968;5.918;2022-09-11T01:00:22;812.93;;;738.73;;
22768;SDS011;13001;51.968;5.918;2022-09-11T01:02:49;799.30;;;724.70;;
22768;SDS011;13001;51.968;5.918;2022-09-11T01:05:19;847.67;;;769.77;;
22768;SDS011;13001;51.968;5.918;2022-09-11T01:07:50;839.75;;;760.50;;
22768;SDS011;13001;51.968;5.918;2022-09-11T01:10:25;877.13;;;793.92;;
22768;SDS011;13001;51.968;5.918;2022-09-11T01:15:29;796.90;;;719.50;;
22768;SDS011;13001;51.968;5.918;2022-09-11T01:18:02;788.50;;;710.42;;
22768;SDS011;13001;51.968;5.918;2022-09-11T01:20:31;815.60;;;742.42;;
22768;SDS011;13001;51.968;5.918;2022-09-11T01:25:51;820.73;;;745.23;;
22768;SDS011;13001;51.968;5.918;2022-09-11T01:28:19;858.30;;;776.02;;
22768;SDS011;13001;51.968;5.918;2022-09-11T01:30:49;857.67;;;772.52;;
22768;SDS011;13001;51.968;5.918;2022-09-11T01:33:33;841.70;;;766.35;;
22768;SDS011;13001;51.968;5.918;2022-09-11T01:36:06;862.90;;;782.20;;
22768;SDS011;13001;51.968;5.918;2022-09-11T01:38:35;881.53;;;797.10;;
22768;SDS011;13001;51.968;5.918;2022-09-11T01:46:17;835.92;;;759.42;;
22768;SDS011;13001;51.968;5.918;2022-09-11T01:48:47;867.33;;;784.52;;
22768;SDS011;13001;51.968;5.918;2022-09-11T01:51:17;869.95;;;786.08;;
22768;SDS011;13001;51.968;5.918;2022-09-11T01:53:44;807.25;;;734.48;;
22768;SDS011;13001;51.968;5.918;2022-09-11T01:56:15;799.50;;;729.30;;
22768;SDS011;13001;51.968;5.918;2022-09-11T01:58:41;832.15;;;758.60;;
22768;SDS011;13001;51.968;5.918;2022-09-11T02:01:10;756.30;;;693.30;;
22768;SDS011;13001;51.968;5.918;2022-09-11T02:03:41;693.35;;;634.13;;
22768;SDS011;13001;51.968;5.918;2022-09-11T02:06:23;683.12;;;625.22;;
22768;SDS011;13001;51.968;5.918;2022-09-11T02:08:48;708.67;;;650.67;;
22768;SDS011;13001;51.968;5.918;2022-09-11T02:11:16;733.23;;;670.73;;
22768;SDS011;13001;51.968;5.918;2022-09-11T02:19:19;765.10;;;701.92;;
22768;SDS011;13001;51.968;5.918;2022-09-11T02:21:46;779.25;;;715.35;;
22768;SDS011;13001;51.968;5.918;2022-09-11T02:24:14;812.23;;;739.85;;
22768;SDS011;13001;51.968;5.918;2022-09-11T02:26:43;818.37;;;746.08;;
22768;SDS011;13001;51.968;5.918;2022-09-11T02:29:10;821.12;;;748.60;;
22768;SDS011;13001;51.968;5.918;2022-09-11T02:31:38;845.30;;;771.58;;
22768;SDS011;13001;51.968;5.918;2022-09-11T02:34:07;808.77;;;739.50;;
22768;SDS011;13001;51.968;5.918;2022-09-11T02:39:28;775.08;;;711.20;;
22768;SDS011;13001;51.968;5.918;2022-09-11T02:42:13;762.08;;;699.25;;
22768;SDS011;13001;51.968;5.918;2022-09-11T02:47:23;799.67;;;734.95;;
22768;SDS011;13001;51.968;5.918;2022-09-11T02:49:57;791.60;;;727.17;;
22768;SDS011;13001;51.968;5.918;2022-09-11T02:55:10;700.08;;;636.17;;
22768;SDS011;13001;51.968;5.918;2022-09-11T02:57:57;667.48;;;605.37;;
22768;SDS011;13001;51.968;5.918;2022-09-11T03:00:19;770.65;;;699.52;;
22768;SDS011;13001;51.968;5.918;2022-09-11T03:02:46;756.02;;;688.15;;
22768;SDS011;13001;51.968;5.918;2022-09-11T03:05:14;736.98;;;671.42;;
22768;SDS011;13001;51.968;5.918;2022-09-11T03:07:42;699.45;;;638.10;;
22768;SDS011;13001;51.968;5.918;2022-09-11T03:10:09;688.55;;;628.10;;
22768;SDS011;13001;51.968;5.918;2022-09-11T03:12:38;699.83;;;639.78;;
22768;SDS011;13001;51.968;5.918;2022-09-11T03:15:07;671.27;;;612.60;;
22768;SDS011;13001;51.968;5.918;2022-09-11T03:17:36;738.58;;;675.22;;
22768;SDS011;13001;51.968;5.918;2022-09-11T03:20:06;669.17;;;611.55;;
22768;SDS011;13001;51.968;5.918;2022-09-11T03:22:32;707.75;;;649.40;;
22768;SDS011;13001;51.968;5.918;2022-09-11T03:25:00;712.52;;;654.62;;
22768;SDS011;13001;51.968;5.918;2022-09-11T03:27:27;681.45;;;623.47;;
22768;SDS011;13001;51.968;5.918;2022-09-11T03:29:54;733.38;;;669.25;;
22768;SDS011;13001;51.968;5.918;2022-09-11T03:32:22;856.55;;;779.45;;
22768;SDS011;13001;51.968;5.918;2022-09-11T03:34:49;852.43;;;777.88;;
22768;SDS011;13001;51.968;5.918;2022-09-11T03:37:17;765.77;;;697.63;;
22768;SDS011;13001;51.968;5.918;2022-09-11T03:39:44;749.08;;;684.03;;
22768;SDS011;13001;51.968;5.918;2022-09-11T03:42:13;776.08;;;710.85;;
22768;SDS011;13001;51.968;5.918;2022-09-11T03:44:41;733.80;;;671.55;;
22768;SDS011;13001;51.968;5.918;2022-09-11T03:47:09;809.17;;;740.33;;
22768;SDS011;13001;51.968;5.918;2022-09-11T03:49:37;814.40;;;744.15;;
22768;SDS011;13001;51.968;5.918;2022-09-11T03:52:04;840.67;;;768.23;;
22768;SDS011;13001;51.968;5.918;2022-09-11T03:54:31;755.03;;;688.70;;
22768;SDS011;13001;51.968;5.918;2022-09-11T03:56:59;673.33;;;613.27;;
22768;SDS011;13001;51.968;5.918;2022-09-11T03:59:27;671.85;;;616.70;;
22768;SDS011;13001;51.968;5.918;2022-09-11T04:01:54;675.13;;;618.90;;
22768;SDS011;13001;51.968;5.918;2022-09-11T04:04:21;682.47;;;625.02;;
22768;SDS011;13001;51.968;5.918;2022-09-11T04:06:48;675.33;;;618.13;;
22768;SDS011;13001;51.968;5.918;2022-09-11T04:09:16;694.08;;;635.00;;
22768;SDS011;13001;51.968;5.918;2022-09-11T04:11:43;696.45;;;636.77;;
22768;SDS011;13001;51.968;5.918;2022-09-11T04:14:10;704.73;;;645.83;;
22768;SDS011;13001;51.968;5.918;2022-09-11T04:16:37;696.10;;;639.97;;
22768;SDS011;13001;51.968;5.918;2022-09-11T04:19:05;702.45;;;646.30;;
22768;SDS011;13001;51.968;5.918;2022-09-11T04:21:32;721.37;;;661.00;;
22768;SDS011;13001;51.968;5.918;2022-09-11T04:24:00;717.25;;;657.60;;
22768;SDS011;13001;51.968;5.918;2022-09-11T04:26:28;743.80;;;679.23;;
22768;SDS011;13001;51.968;5.918;2022-09-11T04:28:56;686.73;;;631.10;;
22768;SDS011;13001;51.968;5.918;2022-09-11T04:31:24;737.08;;;673.85;;
22768;SDS011;13001;51.968;5.918;2022-09-11T04:33:53;727.75;;;666.55;;
22768;SDS011;13001;51.968;5.918;2022-09-11T04:36:21;711.92;;;652.85;;
22768;SDS011;13001;51.968;5.918;2022-09-11T04:38:52;703.98;;;646.10;;
22768;SDS011;13001;51.968;5.918;2022-09-11T04:41:19;687.92;;;631.02;;
22768;SDS011;13001;51.968;5.918;2022-09-11T04:43:46;724.85;;;663.22;;
22768;SDS011;13001;51.968;5.918;2022-09-11T04:46:16;704.92;;;645.57;;
22768;SDS011;13001;51.968;5.918;2022-09-11T04:48:44;705.98;;;645.27;;
22768;SDS011;13001;51.968;5.918;2022-09-11T04:51:13;705.05;;;644.45;;
22768;SDS011;13001;51.968;5.918;2022-09-11T04:53:40;678.07;;;620.83;;
22768;SDS011;13001;51.968;5.918;2022-09-11T04:56:08;691.77;;;637.58;;
22768;SDS011;13001;51.968;5.918;2022-09-11T04:58:38;723.77;;;665.30;;
22768;SDS011;13001;51.968;5.918;2022-09-11T05:01:06;729.95;;;672.77;;
22768;SDS011;13001;51.968;5.918;2022-09-11T05:03:34;747.33;;;684.65;;
22768;SDS011;13001;51.968;5.918;2022-09-11T05:06:05;719.02;;;661.70;;
22768;SDS011;13001;51.968;5.918;2022-09-11T05:08:33;758.55;;;689.42;;
22768;SDS011;13001;51.968;5.918;2022-09-11T05:11:03;738.72;;;671.85;;
22768;SDS011;13001;51.968;5.918;2022-09-11T05:13:33;724.52;;;659.63;;
22768;SDS011;13001;51.968;5.918;2022-09-11T05:16:06;741.38;;;679.70;;
22768;SDS011;13001;51.968;5.918;2022-09-11T05:18:30;726.10;;;662.90;;
22768;SDS011;13001;51.968;5.918;2022-09-11T05:21:06;702.40;;;641.38;;
22768;SDS011;13001;51.968;5.918;2022-09-11T05:23:29;717.37;;;659.33;;
22768;SDS011;13001;51.968;5.918;2022-09-11T05:26:03;694.13;;;628.75;;
22768;SDS011;13001;51.968;5.918;2022-09-11T05:28:33;708.72;;;643.20;;
22768;SDS011;13001;51.968;5.918;2022-09-11T05:31:00;708.55;;;645.50;;
22768;SDS011;13001;51.968;5.918;2022-09-11T05:33:28;686.10;;;624.90;;
22768;SDS011;13001;51.968;5.918;2022-09-11T05:36:01;761.33;;;696.33;;
22768;SDS011;13001;51.968;5.918;2022-09-11T05:38:24;714.30;;;647.73;;
22768;SDS011;13001;51.968;5.918;2022-09-11T05:40:51;759.05;;;691.20;;
22768;SDS011;13001;51.968;5.918;2022-09-11T05:43:19;756.80;;;695.88;;
22768;SDS011;13001;51.968;5.918;2022-09-11T05:45:53;826.60;;;758.35;;
22768;SDS011;13001;51.968;5.918;2022-09-11T05:48:21;790.73;;;724.70;;
22768;SDS011;13001;51.968;5.918;2022-09-11T05:50:52;680.67;;;617.22;;
22768;SDS011;13001;51.968;5.918;2022-09-11T05:53:20;710.17;;;644.83;;
22768;SDS011;13001;51.968;5.918;2022-09-11T05:55:48;731.17;;;666.52;;
22768;SDS011;13001;51.968;5.918;2022-09-11T05:58:17;898.80;;;810.43;;
22768;SDS011;13001;51.968;5.918;2022-09-11T06:00:44;936.77;;;850.90;;
22768;SDS011;13001;51.968;5.918;2022-09-11T06:03:15;807.62;;;732.95;;
22768;SDS011;13001;51.968;5.918;2022-09-11T06:05:43;844.50;;;765.20;;
22768;SDS011;13001;51.968;5.918;2022-09-11T06:08:10;849.45;;;769.60;;
22768;SDS011;13001;51.968;5.918;2022-09-11T06:10:47;812.27;;;737.17;;
22768;SDS011;13001;51.968;5.918;2022-09-11T06:13:06;754.87;;;691.20;;
22768;SDS011;13001;51.968;5.918;2022-09-11T06:15:34;675.10;;;621.77;;
22768;SDS011;13001;51.968;5.918;2022-09-11T06:18:02;559.05;;;518.97;;
22768;SDS011;13001;51.968;5.918;2022-09-11T06:20:30;554.17;;;511.88;;
22768;SDS011;13001;51.968;5.918;2022-09-11T06:22:58;640.88;;;592.92;;
22768;SDS011;13001;51.968;5.918;2022-09-11T06:25:26;828.17;;;762.23;;
22768;SDS011;13001;51.968;5.918;2022-09-11T06:27:55;719.80;;;658.10;;
22768;SDS011;13001;51.968;5.918;2022-09-11T06:30:22;489.93;;;454.05;;
22768;SDS011;13001;51.968;5.918;2022-09-11T06:32:49;510.90;;;478.35;;
22768;SDS011;13001;51.968;5.918;2022-09-11T06:35:17;550.33;;;509.13;;
22768;SDS011;13001;51.968;5.918;2022-09-11T06:37:44;453.98;;;419.88;;
22768;SDS011;13001;51.968;5.918;2022-09-11T07:21:47;924.38;;;845.50;;
22768;SDS011;13001;51.968;5.918;2022-09-11T07:24:16;970.33;;;894.20;;
22768;SDS011;13001;51.968;5.918;2022-09-11T07:26:43;1027.70;;;947.10;;
22768;SDS011;13001;51.968;5.918;2022-09-11T07:29:11;1080.23;;;993.07;;
22768;SDS011;13001;51.968;5.918;2022-09-11T07:31:38;1071.05;;;982.85;;
22768;SDS011;13001;51.968;5.918;2022-09-11T07:34:09;1095.50;;;999.90;;
22768;SDS011;13001;51.968;5.918;2022-09-11T07:36:36;1069.63;;;979.27;;
22768;SDS011;13001;51.968;5.918;2022-09-11T07:39:04;1069.60;;;977.67;;
22768;SDS011;13001;51.968;5.918;2022-09-11T07:41:31;1027.53;;;939.70;;
22768;SDS011;13001;51.968;5.918;2022-09-11T07:43:58;1085.65;;;986.08;;
22768;SDS011;13001;51.968;5.918;2022-09-11T07:46:25;1069.65;;;974.27;;
22768;SDS011;13001;51.968;5.918;2022-09-11T07:48:54;1044.83;;;953.88;;
22768;SDS011;13001;51.968;5.918;2022-09-11T07:51:22;1025.08;;;938.08;;
22768;SDS011;13001;51.968;5.918;2022-09-11T07:53:50;973.72;;;893.92;;
22768;SDS011;13001;51.968;5.918;2022-09-11T07:56:18;943.37;;;866.73;;
22768;SDS011;13001;51.968;5.918;2022-09-11T07:58:48;965.17;;;886.77;;
22768;SDS011;13001;51.968;5.918;2022-09-11T08:01:17;929.15;;;853.92;;
22768;SDS011;13001;51.968;5.918;2022-09-11T08:03:44;876.45;;;802.65;;
22768;SDS011;13001;51.968;5.918;2022-09-11T08:06:13;879.72;;;806.30;;
22768;SDS011;13001;51.968;5.918;2022-09-11T08:08:41;889.78;;;815.50;;
22768;SDS011;13001;51.968;5.918;2022-09-11T08:11:10;913.30;;;832.08;;
22768;SDS011;13001;51.968;5.918;2022-09-11T08:13:37;927.33;;;845.85;;
22768;SDS011;13001;51.968;5.918;2022-09-11T08:16:05;903.80;;;824.25;;
22768;SDS011;13001;51.968;5.918;2022-09-11T08:18:32;980.03;;;890.92;;
22768;SDS011;13001;51.968;5.918;2022-09-11T08:21:04;1051.70;;;955.00;;
22768;SDS011;13001;51.968;5.918;2022-09-11T08:23:34;1005.73;;;913.80;;
22768;SDS011;13001;51.968;5.918;2022-09-11T08:26:06;1023.85;;;930.40;;
22768;SDS011;13001;51.968;5.918;2022-09-11T08:28:30;981.08;;;893.05;;
22768;SDS011;13001;51.968;5.918;2022-09-11T08:30:58;1007.30;;;917.58;;
22768;SDS011;13001;51.968;5.918;2022-09-11T08:33:27;1003.20;;;914.08;;
22768;SDS011;13001;51.968;5.918;2022-09-11T08:35:56;965.20;;;879.70;;
22768;SDS011;13001;51.968;5.918;2022-09-11T08:38:23;948.17;;;865.53;;
22768;SDS011;13001;51.968;5.918;2022-09-11T08:40:52;942.50;;;863.40;;
22768;SDS011;13001;51.968;5.918;2022-09-11T08:43:32;1117.70;;;999.90;;
22768;SDS011;13001;51.968;5.918;2022-09-11T08:45:57;1119.50;;;999.90;;
22768;SDS011;13001;51.968;5.918;2022-09-11T08:48:36;1142.85;;;999.90;;
22768;SDS011;13001;51.968;5.918;2022-09-11T08:51:03;1057.53;;;964.17;;
22768;SDS011;13001;51.968;5.918;2022-09-11T08:53:30;991.60;;;906.20;;
22768;SDS011;13001;51.968;5.918;2022-09-11T08:55:59;1064.28;;;968.85;;
22768;SDS011;13001;51.968;5.918;2022-09-11T09:03:58;1111.60;;;999.90;;
22768;SDS011;13001;51.968;5.918;2022-09-11T09:08:56;1021.02;;;923.38;;
22768;SDS011;13001;51.968;5.918;2022-09-11T09:11:35;956.60;;;868.23;;
22768;SDS011;13001;51.968;5.918;2022-09-11T09:14:11;996.33;;;907.98;;
22768;SDS011;13001;51.968;5.918;2022-09-11T09:19:11;892.70;;;823.75;;
22768;SDS011;13001;51.968;5.918;2022-09-11T09:21:41;1001.35;;;918.35;;
22768;SDS011;13001;51.968;5.918;2022-09-11T09:24:10;1023.85;;;938.38;;
22768;SDS011;13001;51.968;5.918;2022-09-11T09:26:39;905.27;;;830.65;;
22768;SDS011;13001;51.968;5.918;2022-09-11T09:29:13;670.70;;;613.42;;
22768;SDS011;13001;51.968;5.918;2022-09-11T09:31:35;523.97;;;484.70;;
22768;SDS011;13001;51.968;5.918;2022-09-11T09:34:12;481.90;;;449.85;;
22768;SDS011;13001;51.968;5.918;2022-09-11T09:36:41;529.17;;;491.83;;
22768;SDS011;13001;51.968;5.918;2022-09-11T09:39:13;673.85;;;625.30;;
22768;SDS011;13001;51.968;5.918;2022-09-11T09:44:19;761.90;;;698.93;;
22768;SDS011;13001;51.968;5.918;2022-09-11T09:46:48;898.25;;;811.45;;
22768;SDS011;13001;51.968;5.918;2022-09-11T09:49:26;616.45;;;566.38;;
22768;SDS011;13001;51.968;5.918;2022-09-11T09:51:48;913.83;;;832.17;;
22768;SDS011;13001;51.968;5.918;2022-09-11T09:54:17;829.95;;;759.05;;
22768;SDS011;13001;51.968;5.918;2022-09-11T09:56:48;738.27;;;676.85;;
22768;SDS011;13001;51.968;5.918;2022-09-11T09:59:21;813.25;;;744.35;;
22768;SDS011;13001;51.968;5.918;2022-09-11T10:01:45;837.10;;;763.98;;
22768;SDS011;13001;51.968;5.918;2022-09-11T10:06:43;982.73;;;903.87;;
22768;SDS011;13001;51.968;5.918;2022-09-11T10:09:18;994.03;;;914.40;;
22768;SDS011;13001;51.968;5.918;2022-09-11T10:11:49;1019.02;;;934.85;;
22768;SDS011;13001;51.968;5.918;2022-09-11T10:14:18;1014.27;;;931.30;;
22768;SDS011;13001;51.968;5.918;2022-09-11T10:16:46;1017.93;;;933.77;;
22768;SDS011;13001;51.968;5.918;2022-09-11T10:19:39;1035.90;;;949.47;;
22768;SDS011;13001;51.968;5.918;2022-09-11T10:22:19;978.83;;;897.03;;
22768;SDS011;13001;51.968;5.918;2022-09-11T10:24:41;1020.05;;;932.90;;
22768;SDS011;13001;51.968;5.918;2022-09-11T10:27:09;928.00;;;851.90;;
22768;SDS011;13001;51.968;5.918;2022-09-11T10:29:38;1039.28;;;948.40;;
22768;SDS011;13001;51.968;5.918;2022-09-11T10:32:11;1022.60;;;933.63;;
22768;SDS011;13001;51.968;5.918;2022-09-11T10:34:36;1026.58;;;933.85;;
22768;SDS011;13001;51.968;5.918;2022-09-11T10:37:06;1008.10;;;912.78;;
22768;SDS011;13001;51.968;5.918;2022-09-11T10:39:33;913.67;;;821.95;;
22768;SDS011;13001;51.968;5.918;2022-09-11T10:42:19;916.15;;;823.12;;
22768;SDS011;13001;51.968;5.918;2022-09-11T10:44:45;787.85;;;712.90;;
22768;SDS011;13001;51.968;5.918;2022-09-11T10:47:13;792.30;;;729.03;;
22768;SDS011;13001;51.968;5.918;2022-09-11T10:49:40;746.45;;;689.32;;
22768;SDS011;13001;51.968;5.918;2022-09-11T10:55:10;486.08;;;452.43;;
22768;SDS011;13001;51.968;5.918;2022-09-11T10:57:23;574.45;;;536.62;;
22768;SDS011;13001;51.968;5.918;2022-09-11T11:02:26;592.25;;;552.45;;
22768;SDS011;13001;51.968;5.918;2022-09-11T11:04:50;584.50;;;545.70;;
22768;SDS011;13001;51.968;5.918;2022-09-11T11:07:27;523.47;;;487.65;;
22768;SDS011;13001;51.968;5.918;2022-09-11T11:09:58;536.38;;;499.68;;
22768;SDS011;13001;51.968;5.918;2022-09-11T11:12:38;547.37;;;510.43;;
22768;SDS011;13001;51.968;5.918;2022-09-11T11:14:58;512.30;;;474.32;;
22768;SDS011;13001;51.968;5.918;2022-09-11T11:20:20;636.50;;;592.53;;
22768;SDS011;13001;51.968;5.918;2022-09-11T11:25:35;548.30;;;511.68;;
22768;SDS011;13001;51.968;5.918;2022-09-11T11:30:34;580.50;;;540.38;;
22768;SDS011;13001;51.968;5.918;2022-09-11T11:33:10;557.88;;;520.70;;
22768;SDS011;13001;51.968;5.918;2022-09-11T11:35:35;552.70;;;513.85;;
22768;SDS011;13001;51.968;5.918;2022-09-11T11:38:07;571.77;;;526.82;;
22768;SDS011;13001;51.968;5.918;2022-09-11T11:40:33;587.52;;;538.20;;
22768;SDS011;13001;51.968;5.918;2022-09-11T11:43:11;575.33;;;530.95;;
22768;SDS011;13001;51.968;5.918;2022-09-11T11:45:45;530.35;;;492.07;;
22768;SDS011;13001;51.968;5.918;2022-09-11T11:48:17;584.57;;;536.53;;
22768;SDS011;13001;51.968;5.918;2022-09-11T11:50:48;609.87;;;558.77;;
22768;SDS011;13001;51.968;5.918;2022-09-11T11:57:05;624.62;;;582.30;;
22768;SDS011;13001;51.968;5.918;2022-09-11T11:58:43;557.77;;;521.63;;
22768;SDS011;13001;51.968;5.918;2022-09-11T12:01:28;564.65;;;527.90;;
22768;SDS011;13001;51.968;5.918;2022-09-11T12:03:58;622.87;;;580.03;;
22768;SDS011;13001;51.968;5.918;2022-09-11T12:06:24;654.40;;;608.58;;
22768;SDS011;13001;51.968;5.918;2022-09-11T12:08:52;670.20;;;623.80;;
22768;SDS011;13001;51.968;5.918;2022-09-11T12:11:25;677.93;;;631.43;;
22768;SDS011;13001;51.968;5.918;2022-09-11T12:13:50;617.42;;;574.73;;
22768;SDS011;13001;51.968;5.918;2022-09-11T12:16:19;690.55;;;635.23;;
22768;SDS011;13001;51.968;5.918;2022-09-11T12:19:05;646.60;;;590.58;;
22768;SDS011;13001;51.968;5.918;2022-09-11T12:26:31;534.00;;;489.85;;
22768;SDS011;13001;51.968;5.918;2022-09-11T12:37:03;564.10;;;517.37;;
22768;SDS011;13001;51.968;5.918;2022-09-11T12:39:37;532.00;;;492.63;;
22768;SDS011;13001;51.968;5.918;2022-09-11T12:47:23;686.17;;;633.55;;
22768;SDS011;13001;51.968;5.918;2022-09-11T12:49:54;641.77;;;592.97;;
22768;SDS011;13001;51.968;5.918;2022-09-11T12:52:32;585.95;;;543.25;;
22768;SDS011;13001;51.968;5.918;2022-09-11T12:55:03;546.15;;;506.40;;
22768;SDS011;13001;51.968;5.918;2022-09-11T12:57:30;569.97;;;521.40;;
22768;SDS011;13001;51.968;5.918;2022-09-11T13:00:04;555.65;;;509.65;;
22768;SDS011;13001;51.968;5.918;2022-09-11T13:05:13;530.27;;;490.68;;
22768;SDS011;13001;51.968;5.918;2022-09-11T13:07:42;602.90;;;557.62;;
22768;SDS011;13001;51.968;5.918;2022-09-11T13:10:04;626.92;;;577.33;;
22768;SDS011;13001;51.968;5.918;2022-09-11T13:12:50;595.33;;;551.45;;
22768;SDS011;13001;51.968;5.918;2022-09-11T13:18:18;641.62;;;591.30;;
22768;SDS011;13001;51.968;5.918;2022-09-11T13:20:54;645.05;;;593.10;;
22768;SDS011;13001;51.968;5.918;2022-09-11T13:23:15;675.27;;;620.27;;
22768;SDS011;13001;51.968;5.918;2022-09-11T13:25:46;665.30;;;611.52;;
22768;SDS011;13001;51.968;5.918;2022-09-11T13:28:13;668.70;;;615.28;;
22768;SDS011;13001;51.968;5.918;2022-09-11T13:31:00;692.83;;;636.53;;
22768;SDS011;13001;51.968;5.918;2022-09-11T13:33:16;550.35;;;507.80;;
22768;SDS011;13001;51.968;5.918;2022-09-11T13:35:43;578.07;;;531.50;;
22768;SDS011;13001;51.968;5.918;2022-09-11T13:38:16;604.70;;;556.10;;
22768;SDS011;13001;51.968;5.918;2022-09-11T13:40:47;534.77;;;493.30;;
22768;SDS011;13001;51.968;5.918;2022-09-11T13:43:18;557.80;;;514.27;;
22768;SDS011;13001;51.968;5.918;2022-09-11T13:45:46;575.08;;;528.88;;
22768;SDS011;13001;51.968;5.918;2022-09-11T13:48:18;573.55;;;527.67;;
22768;SDS011;13001;51.968;5.918;2022-09-11T13:50:46;562.88;;;519.50;;
22768;SDS011;13001;51.968;5.918;2022-09-11T13:53:15;601.40;;;555.80;;
22768;SDS011;13001;51.968;5.918;2022-09-11T13:55:49;536.60;;;495.48;;
22768;SDS011;13001;51.968;5.918;2022-09-11T13:58:23;548.73;;;505.87;;
22768;SDS011;13001;51.968;5.918;2022-09-11T14:00:51;567.23;;;523.50;;
22768;SDS011;13001;51.968;5.918;2022-09-11T14:05:54;543.80;;;501.90;;
22768;SDS011;13001;51.968;5.918;2022-09-11T14:08:24;617.25;;;566.50;;
22768;SDS011;13001;51.968;5.918;2022-09-11T14:11:12;594.60;;;547.25;;
22768;SDS011;13001;51.968;5.918;2022-09-11T14:13:30;522.98;;;483.95;;
22768;SDS011;13001;51.968;5.918;2022-09-11T14:16:05;539.30;;;498.70;;
22768;SDS011;13001;51.968;5.918;2022-09-11T14:18:35;543.77;;;503.13;;
22768;SDS011;13001;51.968;5.918;2022-09-11T14:21:04;638.90;;;586.77;;
22768;SDS011;13001;51.968;5.918;2022-09-11T14:23:33;612.42;;;565.88;;
22768;SDS011;13001;51.968;5.918;2022-09-11T14:26:02;617.37;;;569.65;;
22768;SDS011;13001;51.968;5.918;2022-09-11T14:28:56;654.85;;;600.48;;
22768;SDS011;13001;51.968;5.918;2022-09-11T14:31:11;638.70;;;587.63;;
22768;SDS011;13001;51.968;5.918;2022-09-11T14:33:40;558.25;;;516.77;;
22768;SDS011;13001;51.968;5.918;2022-09-11T14:36:12;638.45;;;586.73;;
22768;SDS011;13001;51.968;5.918;2022-09-11T14:38:37;586.28;;;542.58;;
22768;SDS011;13001;51.968;5.918;2022-09-11T14:41:06;623.33;;;577.65;;
22768;SDS011;13001;51.968;5.918;2022-09-11T14:43:34;700.80;;;647.13;;
22768;SDS011;13001;51.968;5.918;2022-09-11T14:46:01;686.47;;;635.37;;
22768;SDS011;13001;51.968;5.918;2022-09-11T14:48:29;598.95;;;556.10;;
22768;SDS011;13001;51.968;5.918;2022-09-11T14:50:57;689.20;;;636.05;;
22768;SDS011;13001;51.968;5.918;2022-09-11T14:53:26;705.50;;;649.62;;
22768;SDS011;13001;51.968;5.918;2022-09-11T14:55:55;705.75;;;649.12;;
22768;SDS011;13001;51.968;5.918;2022-09-11T14:58:23;631.90;;;586.90;;
22768;SDS011;13001;51.968;5.918;2022-09-11T15:00:50;640.23;;;593.20;;
22768;SDS011;13001;51.968;5.918;2022-09-11T15:03:18;612.52;;;565.17;;
22768;SDS011;13001;51.968;5.918;2022-09-11T15:05:49;643.08;;;592.05;;
22768;SDS011;13001;51.968;5.918;2022-09-11T15:08:16;611.02;;;563.55;;
22768;SDS011;13001;51.968;5.918;2022-09-11T15:10:43;711.12;;;653.60;;
22768;SDS011;13001;51.968;5.918;2022-09-11T15:13:12;641.13;;;589.83;;
22768;SDS011;13001;51.968;5.918;2022-09-11T15:15:39;712.48;;;662.17;;
22768;SDS011;13001;51.968;5.918;2022-09-11T15:18:07;671.03;;;624.62;;
22768;SDS011;13001;51.968;5.918;2022-09-11T15:20:34;649.08;;;598.67;;
22768;SDS011;13001;51.968;5.918;2022-09-11T15:23:02;700.17;;;651.10;;
22768;SDS011;13001;51.968;5.918;2022-09-11T15:25:29;594.08;;;549.62;;
22768;SDS011;13001;51.968;5.918;2022-09-11T15:27:58;648.02;;;600.85;;
22768;SDS011;13001;51.968;5.918;2022-09-11T15:30:25;679.67;;;627.50;;
22768;SDS011;13001;51.968;5.918;2022-09-11T15:32:53;644.03;;;595.80;;
22768;SDS011;13001;51.968;5.918;2022-09-11T15:35:21;776.00;;;711.42;;
22768;SDS011;13001;51.968;5.918;2022-09-11T15:37:51;646.83;;;597.87;;
22768;SDS011;13001;51.968;5.918;2022-09-11T15:40:19;596.37;;;551.75;;
22768;SDS011;13001;51.968;5.918;2022-09-11T15:42:47;637.43;;;590.13;;
22768;SDS011;13001;51.968;5.918;2022-09-11T15:45:15;699.20;;;643.55;;
22768;SDS011;13001;51.968;5.918;2022-09-11T15:47:43;679.90;;;627.50;;
22768;SDS011;13001;51.968;5.918;2022-09-11T15:50:10;770.30;;;710.97;;
22768;SDS011;13001;51.968;5.918;2022-09-11T15:52:37;754.83;;;691.10;;
22768;SDS011;13001;51.968;5.918;2022-09-11T15:55:06;711.58;;;655.17;;
22768;SDS011;13001;51.968;5.918;2022-09-11T15:57:35;764.08;;;699.23;;
22768;SDS011;13001;51.968;5.918;2022-09-11T16:00:04;785.85;;;721.05;;
22768;SDS011;13001;51.968;5.918;2022-09-11T16:02:32;743.02;;;685.02;;
22768;SDS011;13001;51.968;5.918;2022-09-11T16:05:00;827.83;;;757.47;;
22768;SDS011;13001;51.968;5.918;2022-09-11T16:07:27;822.73;;;750.70;;
22768;SDS011;13001;51.968;5.918;2022-09-11T16:10:00;833.40;;;759.25;;
22768;SDS011;13001;51.968;5.918;2022-09-11T16:12:27;833.47;;;758.17;;